Latest Coastal Weather Observations for Roebourne Airport

IDW60701

Issued at 1:25 pm WST Thursday 31 July 2014 (issued every 10 minutes, with the page automatically refreshed every 10 minutes)

About coastal observations | Map of coastal stations | Coastal observations for WA | Marine services | Other Formats
Station Details ID: 004090 Name: ROEBOURNE AERO Lat: -20.76 Lon: 117.16 Height: 10.7 m
Data from the previous 72 hours. | See also: Recent months at Roebourne Airport
Date/Time
WST
Temp

°C
Wind Pressure Rain
since 9am
mm
Weather Cloud Vis
km
Sea
Height
m
Swell
Dir
 
Speed
knots
Gust
knots
hPa Trend Height
m
Period
s
Dir
31/01:00pm 31.6 NE 10 13 1016.9 - 0.0 - - - - - - -
31/12:30pm 31.5 E 9 14 1017.4 - 0.0 - - - - - - -
31/12:00pm 31.3 ESE 7 11 1017.8 - 0.0 - - - - - - -
31/11:30am 30.9 SE 8 12 1018.4 - 0.0 - - - - - - -
31/11:00am 29.6 SE 9 11 1018.6 - 0.0 - - - - - - -
31/10:30am 29.2 SE 9 13 1018.8 - 0.0 - - - - - - -
31/10:00am 28.9 SE 9 12 1018.6 - 0.0 - - - - - - -
31/09:30am 28.4 SSE 7 9 1018.7 - 0.0 - - - - - - -
31/09:00am 25.5 S 4 6 1018.4 - 0.0 - - - - - - -
31/08:30am 21.7 CALM 0 0 1018.5 - 0.0 - - - - - - -
31/08:00am 19.1 CALM 0 0 1018.3 - 0.0 - - - - - - -
31/07:30am 15.6 E 2 3 1018.3 - 0.0 - - - - - - -
31/07:00am 14.3 NNW 3 3 1018.0 - 0.0 - - - - - - -
31/06:30am 14.4 NNE 3 4 1017.9 - 0.0 - - - - - - -
31/06:00am 14.7 E 3 7 1017.4 - 0.0 - - - - - - -
31/05:30am 15.6 SSE 2 4 1017.4 - 0.0 - - - - - - -
31/05:00am 14.0 SSW 6 8 1017.0 - 0.0 - - - - - - -
31/04:30am 13.4 W 1 5 1016.9 - 0.0 - - - - - - -
31/04:00am 14.5 N 4 7 1016.8 - 0.0 - - - - - - -
31/03:30am 15.4 WSW 3 4 1016.9 - 0.0 - - - - - - -
31/03:00am 14.3 S 6 7 1017.1 - 0.0 - - - - - - -
31/02:30am 14.9 SSW 7 8 1017.3 - 0.0 - - - - - - -
31/02:00am 15.1 SSW 8 10 1017.1 - 0.0 - - - - - - -
31/01:30am 16.3 W 4 6 1017.2 - 0.0 - - - - - - -
31/01:00am 16.0 WSW 3 5 1017.3 - 0.0 - - - - - - -
31/12:30am 16.6 SSW 5 6 1017.7 - 0.0 - - - - - - -
31/12:00am 17.9 W 2 4 1017.6 - 0.0 - - - - - - -
 
Date/Time
WST
Temp

°C
Wind Pressure Rain
since 9am
mm
Weather Cloud Vis
km
Sea
Height
m
Swell
Dir
 
Speed
knots
Gust
knots
hPa Trend Height
m
Period
s
Dir
30/11:30pm 18.2 SSW 6 7 1017.8 - 0.0 - - - - - - -
30/11:00pm 18.5 S 6 8 1017.8 - 0.0 - - - - - - -
30/10:30pm 19.8 SSW 9 9 1018.0 - 0.0 - - - - - - -
30/10:00pm 19.2 SW 7 8 1017.9 - 0.0 - - - - - - -
30/09:30pm 19.7 SSW 7 10 1017.8 - 0.0 - - - - - - -
30/09:00pm 19.7 S 5 8 1017.8 - 0.0 - - - - - - -
30/08:30pm 19.4 SW 2 4 1017.8 - 0.0 - - - - - - -
30/08:00pm 21.0 NW 4 6 1017.3 - 0.0 - - - - - - -
30/07:30pm 20.7 N 4 5 1017.1 - 0.0 - - - - - - -
30/07:00pm 21.4 NNW 3 4 1016.9 - 0.0 - - - - - - -
30/06:30pm 21.9 NNW 5 6 1016.8 - 0.0 - - - - - - -
30/06:00pm 24.2 N 7 9 1016.5 - 0.0 - - - - - - -
30/05:30pm 26.3 N 11 14 1016.7 - 0.0 - - - - - - -
30/05:00pm 27.1 N 11 14 1016.6 - 0.0 - - - - - - -
30/04:30pm 28.3 N 12 16 1016.5 - 0.0 - - - - - - -
30/04:00pm 28.7 N 13 16 1016.3 - 0.0 - - - - - - -
30/03:30pm 29.5 NNE 13 16 1016.4 - 0.0 - - - - - - -
30/03:00pm 29.4 NNE 13 16 1016.5 - 0.0 - - - - - - -
30/02:30pm 29.4 N 13 16 1016.8 - 0.0 - - - - - - -
30/02:00pm 29.8 N 13 16 1016.9 - 0.0 - - - - - - -
30/01:30pm 29.6 N 14 17 1017.3 - 0.0 - - - - - - -
30/01:00pm 30.9 NNE 13 17 1017.6 - 0.0 - - - - - - -
30/12:30pm 30.2 NNE 14 18 1018.2 - 0.0 - - - - - - -
30/12:00pm 29.6 NNE 14 18 1018.5 - 0.0 - - - - - - -
30/11:30am 31.1 NE 13 16 1018.7 - 0.0 - - - - - - -
30/11:00am 30.9 ESE 11 16 1018.9 - 0.0 - - - - - - -
30/10:30am 29.9 ESE 13 17 1019.2 - 0.0 - - - - - - -
30/10:00am 28.6 E 14 17 1019.4 - 0.0 - - - - - - -
30/09:30am 27.8 E 11 15 1019.7 - 0.0 - - - - - - -
30/09:00am 26.1 E 9 11 1019.5 - 0.0 - - - - - - -
30/08:30am 22.9 SE 3 7 1019.4 - 0.0 - - - - - - -
30/08:00am 19.4 S 3 4 1019.3 - 0.0 - - - - - - -
30/07:30am 16.2 SSW 3 5 1019.3 - 0.0 - - - - - - -
30/07:00am 12.8 S 4 5 1018.8 - 0.0 - - - - - - -
30/06:30am 13.2 WNW 3 5 1018.7 - 0.0 - - - - - - -
30/06:00am 13.4 SSW 3 5 1018.4 - 0.0 - - - - - - -
30/05:30am 12.8 W 1 5 1018.1 - 0.0 - - - - - - -
30/05:00am 14.6 SW 5 7 1017.7 - 0.0 - - - - - - -
30/04:30am 14.4 SW 2 5 1017.6 - 0.0 - - - - - - -
30/04:00am 16.9 SSW 8 9 1017.4 - 0.0 - - - - - - -
30/03:30am 16.6 W 5 8 1017.5 - 0.0 - - - - - - -
30/03:00am 15.9 SW 1 5 1017.4 - 0.0 - - - - - - -
30/02:30am 15.9 SW 7 8 1017.7 - 0.0 - - - - - - -
30/02:00am 16.3 WSW 4 4 1017.9 - 0.0 - - - - - - -
30/01:30am 16.1 WSW 5 6 1018.3 - 0.0 - - - - - - -
30/01:00am 16.8 SW 5 7 1018.3 - 0.0 - - - - - - -
30/12:30am 18.1 W 5 6 1018.4 - 0.0 - - - - - - -
30/12:00am 17.3 WNW 7 8 1018.1 - 0.0 - - - - - - -
 
Date/Time
WST
Temp

°C
Wind Pressure Rain
since 9am
mm
Weather Cloud Vis
km
Sea
Height
m
Swell
Dir
 
Speed
knots
Gust
knots
hPa Trend Height
m
Period
s
Dir
29/11:30pm 16.7 SSW 6 7 1018.1 - 0.0 - - - - - - -
29/11:00pm 16.2 S 7 7 1018.1 - 0.0 - - - - - - -
29/10:30pm 17.7 S 2 4 1018.5 - 0.0 - - - - - - -
29/10:00pm 18.3 S 3 4 1018.5 - 0.0 - - - - - - -
29/09:30pm 18.6 S 4 4 1018.7 - 0.0 - - - - - - -
29/09:00pm 18.8 CALM 0 0 1018.5 - 0.0 - - - - - - -
29/08:30pm 19.5 SSW 5 7 1018.4 - 0.0 - - - - - - -
29/08:00pm 20.2 S 9 9 1018.0 - 0.0 - - - - - - -
29/07:30pm 19.6 SSE 4 5 1018.2 - 0.0 - - - - - - -
29/07:00pm 22.6 CALM 0 0 1017.9 - 0.0 - - - - - - -
29/06:30pm 22.9 NW 1 4 1017.8 - 0.0 - - - - - - -
29/06:00pm 24.3 NNE 6 7 1017.5 - 0.0 - - - - - - -
29/05:30pm 26.5 NNE 7 9 1017.5 - 0.0 - - - - - - -
29/05:00pm 28.0 N 10 13 1017.2 - 0.0 - - - - - - -
29/04:30pm 28.7 N 11 13 1017.2 - 0.0 - - - - - - -
29/04:00pm 29.5 NNE 12 15 1017.0 - 0.0 - - - - - - -
29/03:30pm 30.2 NNE 11 15 1017.2 - 0.0 - - - - - - -
29/03:00pm 30.4 NNE 12 15 1017.1 - 0.0 - - - - - - -
29/02:30pm 31.0 NE 12 16 1017.2 - 0.0 - - - - - - -
29/02:00pm 30.5 NE 13 16 1017.3 - 0.0 - - - - - - -
29/01:30pm 30.9 NE 13 16 1017.8 - 0.0 - - - - - - -
29/01:00pm 30.7 NE 12 15 1017.9 - 0.0 - - - - - - -
29/12:30pm 31.0 ENE 11 14 1018.4 - 0.0 - - - - - - -
29/12:00pm 31.2 ENE 11 16 1018.6 - 0.0 - - - - - - -
29/11:30am 30.7 ENE 12 17 1019.0 - 0.0 - - - - - - -
29/11:00am 30.1 ESE 11 14 1019.1 - 0.0 - - - - - - -
29/10:30am 29.3 ESE 12 16 1019.5 - 0.0 - - - - - - -
29/10:00am 29.0 ESE 13 16 1019.5 - 0.0 - - - - - - -
29/09:30am 28.1 SE 12 15 1019.5 - 0.0 - - - - - - -
29/09:00am 26.4 S 8 11 1019.1 - 0.0 - - - - - - -
29/08:30am 24.6 SE 7 9 1019.0 - 0.0 - - - - - - -
29/08:00am 20.1 S 4 5 1018.7 - 0.0 - - - - - - -
29/07:30am 16.4 SSW 4 6 1018.4 - 0.0 - - - - - - -
29/07:00am 13.2 SSW 5 6 1018.1 - 0.0 - - - - - - -
29/06:30am 12.8 CALM 0 0 1018.1 - 0.0 - - - - - - -
29/06:00am 13.8 NW 3 5 1017.8 - 0.0 - - - - - - -
29/05:30am 13.8 N 1 6 1017.7 - 0.0 - - - - - - -
29/05:00am 14.2 CALM 0 0 1017.3 - 0.0 - - - - - - -
29/04:30am 16.1 CALM 0 1 1017.4 - 0.0 - - - - - - -
29/04:00am 15.9 WNW 3 5 1017.1 - 0.0 - - - - - - -
29/03:30am 18.4 SSE 4 6 1017.3 - 0.0 - - - - - - -
29/03:00am 18.0 ESE 3 5 1017.3 - 0.0 - - - - - - -
29/02:30am 19.1 SSW 11 12 1017.5 - 0.0 - - - - - - -
29/02:00am 18.7 S 10 11 1017.7 - 0.0 - - - - - - -
29/01:30am 18.0 SSW 9 9 1018.0 - 0.0 - - - - - - -
29/01:00am 17.6 SSW 9 10 1018.1 - 0.0 - - - - - - -
29/12:30am 17.6 SW 10 11 1018.3 - 0.0 - - - - - - -
29/12:00am 15.6 SW 7 8 1018.3 - 0.0 - - - - - - -
 
Date/Time
WST
Temp

°C
Wind Pressure Rain
since 9am
mm
Weather Cloud Vis
km
Sea
Height
m
Swell
Dir
 
Speed
knots
Gust
knots
hPa Trend Height
m
Period
s
Dir
28/11:30pm 16.2 SW 7 7 1018.6 - 0.0 - - - - - - -
28/11:00pm 17.8 SW 7 8 1018.6 - 0.0 - - - - - - -
28/10:30pm 17.7 WSW 3 4 1018.8 - 0.0 - - - - - - -
28/10:00pm 17.4 SSW 5 7 1018.7 - 0.0 - - - - - - -
28/09:30pm 18.0 SW 6 7 1018.6 - 0.0 - - - - - - -
28/09:00pm 21.2 SW 6 8 1018.4 - 0.0 - - - - - - -
28/08:30pm 21.8 WSW 5 6 1018.5 - 0.0 - - - - - - -
28/08:00pm 21.8 WSW 7 9 1018.3 - 0.0 - - - - - - -
28/07:30pm 22.1 WSW 6 8 1018.2 - 0.0 - - - - - - -
28/07:00pm 22.1 W 6 7 1017.8 - 0.0 - - - - - - -
28/06:30pm 23.1 WNW 8 9 1017.6 - 0.0 - - - - - - -
28/06:00pm 24.8 WNW 7 8 1017.0 - 0.0 - - - - - - -
28/05:30pm 27.2 NW 5 6 1016.7 - 0.0 - - - - - - -
28/05:00pm 28.5 N 8 10 1016.5 - 0.0 - - - - - - -
28/04:30pm 29.3 N 8 10 1016.4 - 0.0 - - - - - - -
28/04:00pm 29.8 N 10 13 1016.1 - 0.0 - - - - - - -
28/03:30pm 30.8 NNE 11 14 1016.2 - 0.0 - - - - - - -
28/03:00pm 31.3 NNE 11 14 1016.3 - 0.0 - - - - - - -
28/02:30pm 31.0 NNE 10 15 1016.6 - 0.0 - - - - - - -
28/02:00pm 31.3 NE 12 16 1017.1 - 0.0 - - - - - - -
28/01:30pm 31.4 NE 3 8 1017.6 - 0.0 - - - - - - -

Other Formats:

Comma delimited format used in spreadsheet applications
http://www.bom.gov.au/fwo/IDW60701/IDW60701.94308.axf

JavaScript Object Notation format (JSON) in row-major order
http://www.bom.gov.au/fwo/IDW60701/IDW60701.94308.json